createdAt,value
2018-09-17T00:01:32.321Z,81.09
2018-09-17T00:04:00.861Z,82.12
2018-09-17T00:06:29.602Z,81.71
2018-09-17T00:08:58.321Z,82.19
2018-09-17T00:11:26.886Z,81.92
2018-09-17T00:13:55.477Z,81.62
2018-09-17T00:16:24.104Z,82.53
2018-09-17T00:18:52.720Z,82.79
2018-09-17T00:21:22.102Z,82.63
2018-09-17T00:23:50.977Z,82.31
2018-09-17T00:26:19.639Z,82.28
2018-09-17T00:28:48.264Z,82.21
2018-09-17T00:31:16.772Z,81.61
2018-09-17T00:33:45.385Z,81.89
2018-09-17T00:36:13.970Z,81.88
2018-09-17T00:38:42.551Z,82.67
2018-09-17T00:41:11.210Z,82.52
2018-09-17T00:43:39.860Z,82.62
2018-09-17T00:46:08.481Z,82.67
2018-09-17T00:48:37.337Z,83.01
2018-09-17T00:51:06.046Z,82.56
2018-09-17T00:53:34.931Z,83.91
2018-09-17T00:56:03.556Z,84.03
2018-09-17T00:58:32.205Z,83.91
2018-09-17T01:01:00.736Z,83.13
2018-09-17T01:03:29.656Z,82.93
2018-09-17T01:05:58.311Z,82.51
2018-09-17T01:08:26.915Z,82.60
2018-09-17T01:10:55.522Z,82.47
2018-09-17T01:13:24.114Z,83.02
2018-09-17T01:15:52.776Z,84.54
2018-09-17T01:18:21.287Z,84.65
2018-09-17T01:20:49.743Z,83.98
2018-09-17T01:23:18.679Z,84.29
2018-09-17T01:25:47.204Z,83.78
2018-09-17T01:28:15.662Z,84.94
2018-09-17T01:30:44.233Z,84.91
2018-09-17T01:33:12.777Z,84.93
2018-09-17T01:35:41.505Z,85.63
2018-09-17T01:38:10.162Z,86.00
2018-09-17T01:40:38.937Z,86.43
2018-09-17T01:43:07.669Z,87.55
2018-09-17T01:45:36.621Z,87.43
2018-09-17T01:48:05.238Z,87.34
2018-09-17T01:50:33.801Z,87.21
2018-09-17T01:53:02.316Z,87.18
2018-09-17T01:55:30.849Z,87.03
2018-09-17T01:57:59.497Z,88.15
2018-09-17T02:00:28.095Z,88.61
2018-09-17T02:02:56.582Z,87.94
2018-09-17T02:05:25.116Z,87.62
2018-09-17T02:07:54.241Z,87.19
2018-09-17T02:10:23.229Z,88.51
2018-09-17T02:12:51.870Z,88.87
2018-09-17T02:15:20.441Z,89.68
2018-09-17T02:17:49.114Z,89.82
2018-09-17T02:20:18.603Z,90.72
2018-09-17T02:22:47.149Z,91.38
2018-09-17T02:25:15.737Z,91.13
2018-09-17T02:27:44.363Z,91.07
2018-09-17T02:30:12.965Z,90.54
2018-09-17T02:32:41.543Z,90.16
2018-09-17T02:35:09.951Z,89.98
2018-09-17T02:37:38.473Z,89.37
2018-09-17T02:40:11.048Z,89.18
2018-09-17T02:42:39.990Z,88.65
2018-09-17T02:45:08.519Z,89.43
2018-09-17T02:47:37.440Z,89.39
2018-09-17T02:50:06.495Z,89.46
2018-09-17T02:52:34.921Z,89.66
2018-09-17T02:55:03.416Z,89.66
2018-09-17T02:57:31.833Z,89.66
2018-09-17T03:00:00.244Z,88.80
2018-09-17T03:02:29.066Z,89.02
2018-09-17T03:04:57.933Z,89.78
2018-09-17T03:07:26.370Z,89.12
2018-09-17T03:09:54.829Z,89.32
2018-09-17T03:12:23.293Z,89.62
2018-09-17T03:14:51.804Z,90.01
2018-09-17T03:17:20.650Z,90.85
2018-09-17T03:19:49.327Z,90.27
2018-09-17T03:22:17.751Z,90.10
2018-09-17T03:24:46.730Z,90.28
2018-09-17T03:27:15.251Z,90.07
2018-09-17T03:29:44.082Z,90.13
2018-09-17T03:32:12.670Z,90.65
2018-09-17T03:34:41.334Z,91.38
2018-09-17T03:37:09.901Z,91.94
2018-09-17T03:39:38.579Z,92.88
2018-09-17T03:42:07.964Z,92.90
2018-09-17T03:44:36.466Z,93.66
2018-09-17T03:47:04.869Z,94.06
2018-09-17T03:49:33.289Z,93.86
2018-09-17T03:52:01.717Z,93.63
2018-09-17T03:54:30.397Z,93.95
2018-09-17T03:56:58.831Z,93.71
2018-09-17T03:59:27.302Z,93.59
2018-09-17T04:01:55.758Z,93.97
2018-09-17T04:04:24.225Z,93.96
2018-09-17T04:06:52.797Z,93.78
2018-09-17T04:09:21.342Z,93.49
2018-09-17T04:11:49.985Z,93.44
2018-09-17T04:14:18.506Z,93.27
2018-09-17T04:16:46.992Z,93.69
2018-09-17T04:19:15.541Z,94.29
2018-09-17T04:21:43.972Z,94.71
2018-09-17T04:24:12.370Z,95.26
2018-09-17T04:26:40.813Z,95.66
2018-09-17T04:29:09.248Z,96.10
2018-09-17T04:31:37.921Z,95.15
2018-09-17T04:34:06.457Z,94.28
2018-09-17T04:36:35.357Z,93.00
2018-09-17T04:39:04.634Z,93.41
2018-09-17T04:41:34.331Z,93.89
2018-09-17T04:44:03.042Z,94.56
2018-09-17T04:46:31.474Z,96.22
2018-09-17T04:49:00.150Z,96.97
2018-09-17T04:51:29.288Z,97.09
2018-09-17T04:53:57.850Z,97.65
2018-09-17T04:56:26.450Z,98.46
2018-09-17T04:58:54.944Z,98.44
2018-09-17T05:01:23.441Z,98.76
2018-09-17T05:03:51.933Z,99.05
2018-09-17T05:06:20.387Z,98.88
2018-09-17T05:08:48.932Z,98.75
2018-09-17T05:11:17.516Z,99.12
2018-09-17T05:13:46.078Z,99.59
2018-09-17T05:16:14.626Z,99.84
2018-09-17T05:18:43.608Z,99.66
2018-09-17T05:21:12.165Z,99.91
2018-09-17T05:23:40.807Z,99.79
2018-09-17T05:26:09.269Z,98.92
2018-09-17T05:28:37.918Z,97.21
2018-09-17T05:31:06.349Z,96.84
2018-09-17T05:33:34.859Z,97.28
2018-09-17T05:36:03.769Z,96.87
2018-09-17T05:38:32.383Z,96.40
2018-09-17T05:41:01.025Z,96.46
2018-09-17T05:43:29.625Z,96.03
2018-09-17T05:45:58.158Z,94.82
2018-09-17T05:48:26.601Z,94.61
2018-09-17T05:50:55.521Z,94.63
2018-09-17T05:53:24.058Z,95.04
2018-09-17T05:55:53.089Z,95.79
2018-09-17T05:58:21.726Z,96.56
2018-09-17T06:00:50.313Z,96.21
2018-09-17T06:03:18.759Z,96.10
2018-09-17T06:05:47.528Z,95.21
2018-09-17T06:08:16.046Z,94.71
2018-09-17T06:10:44.617Z,94.50
2018-09-17T06:13:13.325Z,94.56
2018-09-17T06:15:41.889Z,95.39
2018-09-17T06:18:10.584Z,95.93
2018-09-17T06:20:39.276Z,95.90
2018-09-17T06:23:07.838Z,95.67
2018-09-17T06:25:36.309Z,95.48
2018-09-17T06:28:04.841Z,94.52
2018-09-17T06:30:33.785Z,92.76
2018-09-17T06:33:02.343Z,92.91
2018-09-17T06:35:31.064Z,92.10
2018-09-17T06:37:59.664Z,91.88
2018-09-17T06:40:28.417Z,91.83
2018-09-17T06:42:57.084Z,91.82
2018-09-17T06:45:25.617Z,92.06
2018-09-17T06:47:54.178Z,91.10
2018-09-17T06:50:22.721Z,89.90
2018-09-17T06:52:51.263Z,88.04
2018-09-17T06:55:20.058Z,86.46
2018-09-17T06:57:48.935Z,86.03
2018-09-17T07:00:17.644Z,84.29
2018-09-17T07:02:46.876Z,83.82
2018-09-17T07:05:15.421Z,83.07
2018-09-17T07:07:44.042Z,81.50
2018-09-17T07:10:12.619Z,80.71
2018-09-17T07:12:41.329Z,78.64
2018-09-17T07:15:09.985Z,77.32
2018-09-17T07:17:38.491Z,76.90
2018-09-17T07:20:07.250Z,76.38
2018-09-17T07:22:35.990Z,76.12
2018-09-17T07:25:04.626Z,75.67
2018-09-17T07:27:33.159Z,74.59
2018-09-17T07:30:01.802Z,73.75
2018-09-17T07:32:30.449Z,73.75
2018-09-17T07:34:59.073Z,74.19
2018-09-17T07:37:27.605Z,72.49
2018-09-17T07:39:56.141Z,71.99
2018-09-17T07:42:24.790Z,70.58
2018-09-17T07:44:53.603Z,71.46
2018-09-17T07:47:22.341Z,70.03
2018-09-17T07:49:51.170Z,70.36
2018-09-17T07:52:19.804Z,69.39
2018-09-17T07:54:48.967Z,70.39
2018-09-17T07:57:17.609Z,69.47
2018-09-17T07:59:46.225Z,67.85
2018-09-17T08:02:14.817Z,67.55
2018-09-17T08:04:50.794Z,67.79
2018-09-17T08:07:19.413Z,67.16
2018-09-17T08:09:48.586Z,66.71
2018-09-17T08:12:17.248Z,66.53
2018-09-17T08:14:45.877Z,65.62
2018-09-17T08:17:14.653Z,65.50
2018-09-17T08:19:43.627Z,64.38
2018-09-17T08:22:12.204Z,64.40
2018-09-17T08:24:40.645Z,65.21
2018-09-17T08:27:09.531Z,64.92
2018-09-17T08:29:38.174Z,64.37
2018-09-17T08:32:06.725Z,63.92
2018-09-17T08:34:35.476Z,63.28
2018-09-17T08:37:04.091Z,63.48
2018-09-17T08:39:32.709Z,62.22
2018-09-17T08:42:01.465Z,61.81
2018-09-17T08:44:30.118Z,61.51
2018-09-17T08:46:59.010Z,60.66
2018-09-17T08:49:27.705Z,58.76
2018-09-17T08:51:56.314Z,59.09
2018-09-17T08:54:24.922Z,58.38
2018-09-17T08:56:59.085Z,59.13
2018-09-17T08:59:32.730Z,58.33
2018-09-17T09:02:06.471Z,57.57
2018-09-17T09:04:40.524Z,58.10
2018-09-17T09:07:16.202Z,57.08
2018-09-17T09:09:44.839Z,56.99
2018-09-17T09:12:23.406Z,56.59
2018-09-17T09:14:55.888Z,56.20
2018-09-17T09:17:24.925Z,55.94
2018-09-17T09:19:53.420Z,54.77
2018-09-17T09:22:22.496Z,53.13
2018-09-17T09:24:51.188Z,51.41
2018-09-17T09:27:19.837Z,51.80
2018-09-17T09:29:48.610Z,51.70
2018-09-17T09:32:17.277Z,50.63
2018-09-17T09:34:46.039Z,50.60
2018-09-17T09:37:14.579Z,50.55
2018-09-17T09:39:43.233Z,50.19
2018-09-17T09:42:11.922Z,50.33
2018-09-17T09:44:40.675Z,52.23
2018-09-17T09:47:09.139Z,51.20
2018-09-17T09:49:37.909Z,51.07
2018-09-17T09:52:06.720Z,51.91
2018-09-17T09:54:35.433Z,51.01
2018-09-17T09:57:04.542Z,50.51
2018-09-17T09:59:33.032Z,49.96
2018-09-17T10:02:07.331Z,50.71
2018-09-17T10:04:35.851Z,51.43
2018-09-17T10:07:04.425Z,50.02
2018-09-17T10:09:38.458Z,50.90
2018-09-17T10:12:12.387Z,50.52
2018-09-17T10:14:46.096Z,49.29
2018-09-17T10:17:19.833Z,48.92
2018-09-17T10:19:51.742Z,48.71
2018-09-17T10:22:20.877Z,49.31
2018-09-17T10:24:49.454Z,49.69
2018-09-17T10:27:18.861Z,49.04
2018-09-17T10:29:47.664Z,49.15
2018-09-17T10:32:16.343Z,48.21
2018-09-17T10:34:44.912Z,47.86
2018-09-17T10:37:13.475Z,48.72
2018-09-17T10:39:42.169Z,48.36
2018-09-17T10:42:10.923Z,48.83
2018-09-17T10:44:39.446Z,49.24
2018-09-17T10:47:08.046Z,47.90
2018-09-17T10:49:36.658Z,47.64
2018-09-17T10:52:05.391Z,48.27
2018-09-17T10:54:34.062Z,46.88
2018-09-17T10:57:02.762Z,47.75
2018-09-17T10:59:31.626Z,44.86
2018-09-17T11:02:00.234Z,44.83
2018-09-17T11:04:28.756Z,45.04
2018-09-17T11:06:57.458Z,45.72
2018-09-17T11:09:25.959Z,43.82
2018-09-17T11:11:54.712Z,43.64
2018-09-17T11:14:23.317Z,43.95
2018-09-17T11:16:52.225Z,43.95
2018-09-17T11:19:20.963Z,43.56
2018-09-17T11:21:49.582Z,43.30
2018-09-17T11:24:18.145Z,43.18
2018-09-17T11:26:46.877Z,42.11
2018-09-17T11:29:15.470Z,44.14
2018-09-17T11:31:44.126Z,42.85
2018-09-17T11:34:12.827Z,41.47
2018-09-17T11:36:41.381Z,41.05
2018-09-17T11:39:10.925Z,40.07
2018-09-17T11:41:39.912Z,41.28
2018-09-17T11:44:08.777Z,40.31
2018-09-17T11:46:37.592Z,40.99
2018-09-17T11:49:06.162Z,38.47
2018-09-17T11:51:34.873Z,39.24
2018-09-17T11:54:03.534Z,37.79
2018-09-17T11:56:32.023Z,37.21
2018-09-17T11:59:00.585Z,36.16
2018-09-17T12:01:34.626Z,36.86
2018-09-17T12:04:13.023Z,38.72
2018-09-17T12:06:46.682Z,39.63
2018-09-17T12:09:15.374Z,37.48
2018-09-17T12:11:43.894Z,34.09
2018-09-17T12:14:12.623Z,33.65
2018-09-17T12:16:41.369Z,35.16
2018-09-17T12:19:10.221Z,34.75
2018-09-17T12:21:38.733Z,31.74
2018-09-17T12:24:07.557Z,32.03
2018-09-17T12:26:36.087Z,31.80
2018-09-17T12:29:04.918Z,33.69
2018-09-17T12:31:33.425Z,34.49
2018-09-17T12:34:01.914Z,33.38
2018-09-17T12:36:30.461Z,32.92
2018-09-17T12:38:59.126Z,33.28
2018-09-17T12:41:27.705Z,32.80
2018-09-17T12:43:56.367Z,31.27
2018-09-17T12:46:24.955Z,31.88
2018-09-17T12:48:53.697Z,32.18
2018-09-17T12:51:22.156Z,31.68
2018-09-17T12:53:50.947Z,31.34
2018-09-17T12:56:19.822Z,33.49
2018-09-17T12:58:48.461Z,32.95
2018-09-17T13:01:17.282Z,31.10
2018-09-17T13:03:45.813Z,30.22
2018-09-17T13:06:14.673Z,29.62
2018-09-17T13:08:43.334Z,30.34
2018-09-17T13:11:12.209Z,30.86
2018-09-17T13:13:40.831Z,29.56
2018-09-17T13:16:09.325Z,31.36
2018-09-17T13:18:37.935Z,32.12
2018-09-17T13:21:06.593Z,34.06
2018-09-17T13:23:35.181Z,34.89
2018-09-17T13:26:04.029Z,33.10
2018-09-17T13:28:32.537Z,34.45
2018-09-17T13:31:01.107Z,33.05
2018-09-17T13:33:29.746Z,32.74
2018-09-17T13:35:58.297Z,32.43
2018-09-17T13:38:26.973Z,32.95
2018-09-17T13:40:55.600Z,32.29
2018-09-17T13:43:24.104Z,29.46
2018-09-17T13:45:52.565Z,31.74
2018-09-17T13:48:21.507Z,30.94
2018-09-17T13:50:50.095Z,30.77
2018-09-17T13:53:18.686Z,31.01
2018-09-17T13:55:47.398Z,30.99
2018-09-17T13:58:15.994Z,29.78
2018-09-17T14:00:44.717Z,30.70
2018-09-17T14:03:13.296Z,30.47
2018-09-17T14:05:41.772Z,30.08
2018-09-17T14:08:10.642Z,30.88
2018-09-17T14:10:39.257Z,31.41
2018-09-17T14:13:07.893Z,30.08
2018-09-17T14:15:36.465Z,30.43
2018-09-17T14:18:05.125Z,32.23
2018-09-17T14:20:33.568Z,31.20
2018-09-17T14:23:02.116Z,30.66
2018-09-17T14:25:30.765Z,31.27
2018-09-17T14:27:59.249Z,29.90
2018-09-17T14:30:27.944Z,29.58
2018-09-17T14:33:01.726Z,30.15
2018-09-17T14:35:30.238Z,29.52
2018-09-17T14:37:59.033Z,30.92
2018-09-17T14:40:27.496Z,30.65
2018-09-17T14:42:56.602Z,31.33
2018-09-17T14:45:25.202Z,31.29
2018-09-17T14:47:53.778Z,30.89
2018-09-17T14:50:22.705Z,31.14
2018-09-17T14:52:51.174Z,31.16
2018-09-17T14:55:19.979Z,31.08
2018-09-17T14:57:48.625Z,31.44
2018-09-17T15:00:17.237Z,30.15
2018-09-17T15:02:45.720Z,30.77
2018-09-17T15:05:14.367Z,30.66
2018-09-17T15:07:43.052Z,31.04
2018-09-17T15:10:11.713Z,31.95
2018-09-17T15:12:40.262Z,30.88
2018-09-17T15:15:24.986Z,30.58
2018-09-17T15:17:54.130Z,32.48
2018-09-17T15:20:22.731Z,34.02
2018-09-17T15:22:51.121Z,34.54
2018-09-17T15:25:19.925Z,35.15
2018-09-17T15:27:48.528Z,33.54
2018-09-17T15:30:17.175Z,34.01
2018-09-17T15:32:45.817Z,34.11
2018-09-17T15:35:14.523Z,33.93
2018-09-17T15:37:43.048Z,34.11
2018-09-17T15:40:11.853Z,31.82
2018-09-17T15:42:40.418Z,25.02
2018-09-17T15:45:08.960Z,25.08
2018-09-17T15:47:37.637Z,24.84
2018-09-17T15:50:06.424Z,24.97
2018-09-17T15:52:35.250Z,24.58
2018-09-17T15:55:03.972Z,26.36
2018-09-17T15:57:32.561Z,24.91
2018-09-17T16:00:01.346Z,24.46
2018-09-17T16:02:29.912Z,23.80
2018-09-17T16:04:58.877Z,24.74
2018-09-17T16:07:27.554Z,25.80
2018-09-17T16:09:56.029Z,27.81
2018-09-17T16:12:24.765Z,27.37
2018-09-17T16:14:53.261Z,26.30
2018-09-17T16:17:21.942Z,25.53
2018-09-17T16:19:50.543Z,24.41
2018-09-17T16:22:19.114Z,24.54
2018-09-17T16:24:47.759Z,23.76
2018-09-17T16:27:16.366Z,23.64
2018-09-17T16:29:45.114Z,27.47
2018-09-17T16:32:14.819Z,25.35
2018-09-17T16:34:43.566Z,24.95
2018-09-17T16:37:12.133Z,26.35
2018-09-17T16:39:40.986Z,25.52
2018-09-17T16:42:09.610Z,27.56
2018-09-17T16:44:38.227Z,27.90
2018-09-17T16:47:07.301Z,26.25
2018-09-17T16:49:35.836Z,27.99
2018-09-17T16:52:04.293Z,27.87
2018-09-17T16:54:33.254Z,29.44
2018-09-17T16:57:01.729Z,29.70
2018-09-17T16:59:30.472Z,33.13
2018-09-17T17:01:59.125Z,33.79
2018-09-17T17:04:27.711Z,33.43
2018-09-17T17:06:56.326Z,36.18
2018-09-17T17:09:24.945Z,36.61
2018-09-17T17:11:53.553Z,38.00
2018-09-17T17:14:22.002Z,34.26
2018-09-17T17:16:50.585Z,37.28
2018-09-17T17:19:19.157Z,36.30
2018-09-17T17:21:47.759Z,35.44
2018-09-17T17:24:16.502Z,37.44
2018-09-17T17:26:44.933Z,39.40
2018-09-17T17:29:13.449Z,38.05
2018-09-17T17:31:41.917Z,37.29
2018-09-17T17:34:10.867Z,38.26
2018-09-17T17:36:47.664Z,37.80
2018-09-17T17:39:16.649Z,37.88
2018-09-17T17:41:45.122Z,37.80
2018-09-17T17:44:14.073Z,39.83
2018-09-17T17:46:42.662Z,40.56
2018-09-17T17:49:11.226Z,38.74
2018-09-17T17:51:39.861Z,39.41
2018-09-17T17:54:08.337Z,39.58
2018-09-17T17:56:36.838Z,38.29
2018-09-17T17:59:05.626Z,38.13
2018-09-17T18:01:34.097Z,37.93
2018-09-17T18:04:02.685Z,38.02
2018-09-17T18:06:35.090Z,40.28
2018-09-17T18:09:03.941Z,39.77
2018-09-17T18:11:32.650Z,39.11
2018-09-17T18:14:01.942Z,38.68
2018-09-17T18:16:32.293Z,40.00
2018-09-17T18:19:02.287Z,40.68
2018-09-17T18:21:31.516Z,41.06
2018-09-17T18:24:01.382Z,43.33
2018-09-17T18:26:30.419Z,41.91
2018-09-17T18:28:59.081Z,42.52
2018-09-17T18:31:32.692Z,41.79
2018-09-17T18:34:01.397Z,42.98
2018-09-17T18:36:30.221Z,44.67
2018-09-17T18:38:58.872Z,43.04
2018-09-17T18:41:27.466Z,43.50
2018-09-17T18:44:03.096Z,42.94
2018-09-17T18:46:35.514Z,43.20
2018-09-17T18:49:04.434Z,44.05
2018-09-17T18:51:33.097Z,43.16
2018-09-17T18:54:01.524Z,43.39
2018-09-17T18:56:31.047Z,45.48
2018-09-17T18:58:59.633Z,46.10
2018-09-17T19:01:28.181Z,46.72
2018-09-17T19:04:00.575Z,45.77
2018-09-17T19:06:29.065Z,49.33
2018-09-17T19:08:58.781Z,49.76
2018-09-17T19:11:27.295Z,48.70
2018-09-17T19:14:01.018Z,52.21
2018-09-17T19:16:34.824Z,47.92
2018-09-17T19:19:03.276Z,50.68
2018-09-17T19:21:37.095Z,49.21
2018-09-17T19:24:06.933Z,50.90
2018-09-17T19:26:35.383Z,49.30
2018-09-17T19:29:09.138Z,50.83
2018-09-17T19:31:37.765Z,49.72
2018-09-17T19:34:06.507Z,47.94
2018-09-17T19:36:34.957Z,53.57
2018-09-17T19:39:09.167Z,50.43
2018-09-17T19:41:38.242Z,49.84
2018-09-17T19:44:06.790Z,50.20
2018-09-17T19:46:35.314Z,50.78
2018-09-17T19:49:03.884Z,52.00
2018-09-17T19:51:37.657Z,52.49
2018-09-17T19:54:06.387Z,50.81
2018-09-17T19:56:34.884Z,51.09
2018-09-17T20:00:12.232Z,51.38
2018-09-17T20:02:40.666Z,51.04
2018-09-17T20:05:28.449Z,51.87
2018-09-17T20:07:57.318Z,51.27
2018-09-17T20:10:25.933Z,52.19
2018-09-17T20:12:54.435Z,53.54
2018-09-17T20:15:28.206Z,52.98
2018-09-17T20:17:56.630Z,52.91
2018-09-17T20:20:25.938Z,52.94
2018-09-17T20:22:54.633Z,53.80
2018-09-17T20:25:23.109Z,54.80
2018-09-17T20:27:55.213Z,55.47
2018-09-17T20:30:23.701Z,56.18
2018-09-17T20:32:59.227Z,57.11
2018-09-17T20:35:28.046Z,56.74
2018-09-17T20:37:56.483Z,57.29
2018-09-17T20:40:25.639Z,58.72
2018-09-17T20:42:54.331Z,58.57
2018-09-17T20:45:22.758Z,59.17
2018-09-17T20:47:51.273Z,59.20
2018-09-17T20:50:19.768Z,59.26
2018-09-17T20:52:48.191Z,59.23
2018-09-17T20:55:17.012Z,59.70
2018-09-17T20:57:45.411Z,59.70
2018-09-17T21:00:14.074Z,58.62
2018-09-17T21:02:42.805Z,58.86
2018-09-17T21:05:11.974Z,58.78
2018-09-17T21:07:46.249Z,59.66
2018-09-17T21:10:14.739Z,60.58
2018-09-17T21:12:43.715Z,59.54
2018-09-17T21:15:13.098Z,60.09
2018-09-17T21:17:41.540Z,60.22
2018-09-17T21:20:09.986Z,60.72
2018-09-17T21:22:38.418Z,61.36
2018-09-17T21:25:06.887Z,61.36
2018-09-17T21:27:35.273Z,61.93
2018-09-17T21:30:03.715Z,61.88
2018-09-17T21:32:32.135Z,62.15
2018-09-17T21:35:00.518Z,62.11
2018-09-17T21:37:28.983Z,61.36
2018-09-17T21:39:57.384Z,61.31
2018-09-17T21:42:25.818Z,62.42
2018-09-17T21:44:54.260Z,62.24
2018-09-17T21:47:22.746Z,62.07
2018-09-17T21:49:51.145Z,62.10
2018-09-17T21:52:23.275Z,62.83
2018-09-17T21:54:52.191Z,63.45
2018-09-17T21:57:20.632Z,62.98
2018-09-17T21:59:49.067Z,63.86
2018-09-17T22:02:17.472Z,63.32
2018-09-17T22:04:46.222Z,64.09
2018-09-17T22:07:14.941Z,64.05
2018-09-17T22:09:43.346Z,63.84
2018-09-17T22:12:11.741Z,63.81
2018-09-17T22:14:40.480Z,65.06
2018-09-17T22:17:09.188Z,64.59
2018-09-17T22:19:37.736Z,64.75
2018-09-17T22:22:06.583Z,65.45
2018-09-17T22:24:35.093Z,65.34
2018-09-17T22:27:03.474Z,64.72
2018-09-17T22:29:32.330Z,64.51
2018-09-17T22:32:00.793Z,64.31
2018-09-17T22:34:30.325Z,64.23
2018-09-17T22:36:58.932Z,64.75
2018-09-17T22:39:27.637Z,65.05
2018-09-17T22:41:56.031Z,66.56
2018-09-17T22:44:24.707Z,66.68
2018-09-17T22:46:53.277Z,64.85
2018-09-17T22:49:21.760Z,64.66
2018-09-17T22:51:50.344Z,65.92
2018-09-17T22:54:19.218Z,65.10
2018-09-17T22:56:47.647Z,65.80
2018-09-17T22:59:17.134Z,65.97
2018-09-17T23:01:45.847Z,65.68
2018-09-17T23:04:14.581Z,65.16
2018-09-17T23:06:43.112Z,66.38
2018-09-17T23:09:11.865Z,66.21
2018-09-17T23:11:40.338Z,66.61
2018-09-17T23:14:08.809Z,67.46
2018-09-17T23:16:37.342Z,67.10
2018-09-17T23:19:05.993Z,67.94
2018-09-17T23:21:34.421Z,68.27
2018-09-17T23:24:02.980Z,68.41
2018-09-17T23:26:31.483Z,68.55
2018-09-17T23:29:00.088Z,69.50
2018-09-17T23:31:28.673Z,69.81
2018-09-17T23:33:57.387Z,69.83
2018-09-17T23:36:25.990Z,71.03
2018-09-17T23:38:54.698Z,70.94
2018-09-17T23:41:23.366Z,70.78
2018-09-17T23:43:52.002Z,70.83
2018-09-17T23:46:20.516Z,71.27
2018-09-17T23:48:49.279Z,71.51
2018-09-17T23:51:17.692Z,71.11
2018-09-17T23:53:46.364Z,71.50
2018-09-17T23:56:14.885Z,72.03
2018-09-17T23:58:43.365Z,72.31
